< < Back
Terminal Aerodrome Forecast


Current Version              Previous Versions:   1  2  3  4  5  6  7  8  9  

Terminal Aerodrome Forecast

596
FTUS42 KMLB 242300
TAFDAB
TAF
KDAB 242320Z 2500/2524 36005KT P6SM SCT040
     FM251700 01010KT P6SM SCT035=



Latest METAR

028
SAUS80 KWBC 250600 RRB
MTRDAB
METAR KDAB 250553Z 32006KT 10SM SCT048 17/13 A2997 RMK AO2 SLP146
T01720133 10206 20167 58007


USA.gov is the U.S. government's official web portal to all federal, state and local government web resources and services.